createdAt,value
2023-02-08T00:01:37.877Z,-7.62
2023-02-08T00:04:07.163Z,-7.60
2023-02-08T00:06:36.293Z,-7.61
2023-02-08T00:09:07.314Z,-7.58
2023-02-08T00:11:36.570Z,-7.58
2023-02-08T00:14:05.702Z,-7.51
2023-02-08T00:16:34.652Z,-7.46
2023-02-08T00:19:03.663Z,-7.52
2023-02-08T00:21:32.703Z,-7.56
2023-02-08T00:24:01.889Z,-7.52
2023-02-08T00:26:32.354Z,-7.56
2023-02-08T00:29:01.609Z,-7.57
2023-02-08T00:31:30.802Z,-7.56
2023-02-08T00:33:59.858Z,-7.57
2023-02-08T00:36:28.835Z,-7.55
2023-02-08T00:38:57.813Z,-7.52
2023-02-08T00:41:26.772Z,-7.52
2023-02-08T00:43:57.233Z,-7.54
2023-02-08T00:46:26.590Z,-7.58
2023-02-08T00:48:55.734Z,-7.55
2023-02-08T00:51:24.699Z,-7.52
2023-02-08T00:53:53.693Z,-7.50
2023-02-08T00:56:22.702Z,-7.50
2023-02-08T00:58:51.702Z,-7.46
2023-02-08T01:01:22.173Z,-7.48
2023-02-08T01:03:51.181Z,-7.45
2023-02-08T01:06:21.123Z,-7.51
2023-02-08T01:08:50.362Z,-7.48
2023-02-08T01:11:22.438Z,-7.44
2023-02-08T01:13:51.424Z,-7.48
2023-02-08T01:16:24.627Z,-7.47
2023-02-08T01:18:56.725Z,-7.43
2023-02-08T01:21:29.404Z,-7.40
2023-02-08T01:23:58.480Z,-7.42
2023-02-08T01:26:27.933Z,-7.40
2023-02-08T01:28:58.201Z,-7.42
2023-02-08T01:31:30.735Z,-7.45
2023-02-08T01:34:03.303Z,-7.46
2023-02-08T01:36:33.908Z,-7.49
2023-02-08T01:39:03.507Z,-7.47
2023-02-08T01:41:34.482Z,-7.46
2023-02-08T01:44:08.124Z,-7.41
2023-02-08T01:46:40.440Z,-7.40
2023-02-08T01:49:13.159Z,-7.34
2023-02-08T01:51:46.743Z,-7.40
2023-02-08T01:54:19.560Z,-7.43
2023-02-08T01:56:49.554Z,-7.45
2023-02-08T01:59:22.798Z,-7.47
2023-02-08T02:01:55.727Z,-7.57
2023-02-08T02:04:24.987Z,-7.57
2023-02-08T02:06:57.211Z,-7.64
2023-02-08T02:09:30.054Z,-7.61
2023-02-08T02:12:00.397Z,-7.60
2023-02-08T02:14:30.287Z,-7.62
2023-02-08T02:17:02.548Z,-7.66
2023-02-08T02:19:39.011Z,-7.69
2023-02-08T02:22:25.790Z,-7.63
2023-02-08T02:25:31.862Z,-7.64
2023-02-08T02:28:30.094Z,-7.64
2023-02-08T02:31:49.775Z,-7.64
2023-02-08T02:34:26.401Z,-7.71
2023-02-08T02:37:02.880Z,-7.71
2023-02-08T02:39:40.548Z,-7.68
2023-02-08T02:42:31.966Z,-7.67
2023-02-08T02:45:11.932Z,-7.68
2023-02-08T02:47:49.837Z,-7.69
2023-02-08T02:50:25.278Z,-7.63
2023-02-08T02:53:01.735Z,-7.64
2023-02-08T02:55:35.310Z,-7.66
2023-02-08T02:58:07.024Z,-7.65
2023-02-08T03:00:36.224Z,-7.57
2023-02-08T03:03:07.300Z,-7.50
2023-02-08T03:05:36.321Z,-7.46
2023-02-08T03:08:25.925Z,-7.43
2023-02-08T03:11:07.853Z,-7.40
2023-02-08T03:13:58.500Z,-7.38
2023-02-08T03:16:37.470Z,-7.35
2023-02-08T03:19:15.086Z,-7.34
2023-02-08T03:21:52.327Z,-7.25
2023-02-08T03:24:29.476Z,-7.23
2023-02-08T03:27:06.083Z,-7.29
2023-02-08T03:29:45.891Z,-7.29
2023-02-08T03:32:19.533Z,-7.30
2023-02-08T03:34:55.414Z,-7.24
2023-02-08T03:37:27.849Z,-7.21
2023-02-08T03:40:08.869Z,-7.22
2023-02-08T03:42:40.096Z,-7.22
2023-02-08T03:45:14.928Z,-7.24
2023-02-08T03:47:47.666Z,-7.20
2023-02-08T03:50:21.119Z,-7.21
2023-02-08T03:52:52.031Z,-7.17
2023-02-08T03:55:26.134Z,-7.17
2023-02-08T03:57:59.914Z,-7.15
2023-02-08T04:00:32.320Z,-7.06
2023-02-08T04:03:07.523Z,-7.04
2023-02-08T04:05:38.237Z,-7.01
2023-02-08T04:08:07.166Z,-7.05
2023-02-08T04:10:36.400Z,-7.11
2023-02-08T04:13:05.793Z,-7.06
2023-02-08T04:15:35.102Z,-7.07
2023-02-08T04:18:04.231Z,-7.04
2023-02-08T04:20:33.240Z,-7.03
2023-02-08T04:23:03.702Z,-7.01
2023-02-08T04:25:32.729Z,-7.01
2023-02-08T04:28:01.762Z,-6.99
2023-02-08T04:30:30.955Z,-7.00
2023-02-08T04:33:00.439Z,-6.97
2023-02-08T04:35:29.429Z,-7.01
2023-02-08T04:37:58.644Z,-6.98
2023-02-08T04:40:29.122Z,-6.97
2023-02-08T04:42:58.264Z,-6.93
2023-02-08T04:45:28.343Z,-6.89
2023-02-08T04:47:59.132Z,-6.83
2023-02-08T04:50:28.391Z,-6.84
2023-02-08T04:52:57.347Z,-6.84
2023-02-08T04:55:26.334Z,-6.79
2023-02-08T04:57:56.808Z,-6.84
2023-02-08T05:00:25.794Z,-6.83
2023-02-08T05:02:55.597Z,-6.86
2023-02-08T05:05:24.631Z,-6.85
2023-02-08T05:07:54.065Z,-6.86
2023-02-08T05:10:23.098Z,-6.86
2023-02-08T05:12:52.326Z,-6.82
2023-02-08T05:15:22.874Z,-6.80
2023-02-08T05:17:52.004Z,-6.75
2023-02-08T05:20:21.753Z,-6.72
2023-02-08T05:22:50.771Z,-6.66
2023-02-08T05:25:19.961Z,-6.62
2023-02-08T05:27:49.034Z,-6.59
2023-02-08T05:30:18.288Z,-6.55
2023-02-08T05:32:48.703Z,-6.55
2023-02-08T05:35:19.728Z,-6.52
2023-02-08T05:37:54.525Z,-6.47
2023-02-08T05:40:23.674Z,-6.48
2023-02-08T05:42:52.606Z,-6.40
2023-02-08T05:45:21.831Z,-6.40
2023-02-08T05:47:52.228Z,-6.36
2023-02-08T05:50:21.536Z,-6.30
2023-02-08T05:52:53.030Z,-6.23
2023-02-08T05:55:22.051Z,-6.17
2023-02-08T05:57:51.099Z,-6.21
2023-02-08T06:00:20.392Z,-6.21
2023-02-08T06:02:49.699Z,-6.17
2023-02-08T06:05:20.442Z,-6.11
2023-02-08T06:07:49.895Z,-6.11
2023-02-08T06:10:19.230Z,-6.11
2023-02-08T06:12:48.205Z,-6.11
2023-02-08T06:15:17.383Z,-6.03
2023-02-08T06:17:47.442Z,-6.00
2023-02-08T06:20:16.615Z,-5.98
2023-02-08T06:22:47.195Z,-5.93
2023-02-08T06:25:17.130Z,-5.91
2023-02-08T06:27:46.136Z,-5.88
2023-02-08T06:30:20.818Z,-5.91
2023-02-08T06:32:49.999Z,-5.89
2023-02-08T06:35:19.362Z,-5.86
2023-02-08T06:37:49.731Z,-5.84
2023-02-08T06:40:18.955Z,-5.74
2023-02-08T06:42:48.694Z,-5.71
2023-02-08T06:45:17.958Z,-5.73
2023-02-08T06:47:47.293Z,-5.62
2023-02-08T06:50:16.743Z,-5.57
2023-02-08T06:52:45.858Z,-5.56
2023-02-08T06:55:16.362Z,-5.49
2023-02-08T06:57:45.391Z,-5.46
2023-02-08T07:00:15.811Z,-5.41
2023-02-08T07:02:47.516Z,-5.24
2023-02-08T07:05:18.704Z,-5.10
2023-02-08T07:07:48.701Z,-5.04
2023-02-08T07:10:19.336Z,-4.99
2023-02-08T07:12:48.636Z,-4.92
2023-02-08T07:15:17.772Z,-4.83
2023-02-08T07:17:46.966Z,-4.75
2023-02-08T07:20:16.087Z,-4.70
2023-02-08T07:22:45.124Z,-4.69
2023-02-08T07:25:14.176Z,-4.68
2023-02-08T07:27:44.593Z,-4.66
2023-02-08T07:30:14.521Z,-4.51
2023-02-08T07:32:43.611Z,-4.49
2023-02-08T07:35:13.022Z,-4.43
2023-02-08T07:37:42.005Z,-4.37
2023-02-08T07:40:12.536Z,-4.27
2023-02-08T07:42:41.686Z,-4.18
2023-02-08T07:45:26.883Z,-4.07
2023-02-08T07:47:55.926Z,-3.92
2023-02-08T07:50:24.921Z,-3.96
2023-02-08T07:52:53.887Z,-3.90
2023-02-08T07:55:23.082Z,-3.95
2023-02-08T07:57:52.380Z,-3.90
2023-02-08T08:00:21.643Z,-3.96
2023-02-08T08:02:52.117Z,-3.97
2023-02-08T08:05:21.867Z,-4.07
2023-02-08T08:07:50.846Z,-4.02
2023-02-08T08:10:20.193Z,-3.98
2023-02-08T08:12:49.238Z,-3.95
2023-02-08T08:15:18.459Z,-3.91
2023-02-08T08:17:49.683Z,-3.99
2023-02-08T08:20:20.664Z,-4.04
2023-02-08T08:22:49.707Z,-3.94
2023-02-08T08:25:19.622Z,-3.87
2023-02-08T08:27:49.033Z,-3.89
2023-02-08T08:30:19.252Z,-4.04
2023-02-08T08:32:48.342Z,-4.06
2023-02-08T08:35:18.928Z,-4.01
2023-02-08T08:37:49.574Z,-4.05
2023-02-08T08:40:20.384Z,-4.02
2023-02-08T08:42:49.604Z,-4.01
2023-02-08T08:45:18.679Z,-4.00
2023-02-08T08:47:48.141Z,-4.06
2023-02-08T08:50:18.777Z,-4.04
2023-02-08T08:52:49.161Z,-4.15
2023-02-08T08:55:18.492Z,-4.06
2023-02-08T08:57:47.532Z,-3.98
2023-02-08T09:00:16.954Z,-3.99
2023-02-08T09:02:46.069Z,-3.92
2023-02-08T09:05:15.170Z,-3.66
2023-02-08T09:07:44.186Z,-3.32
2023-02-08T09:10:14.741Z,-2.87
2023-02-08T09:12:43.688Z,-2.74
2023-02-08T09:15:13.006Z,-2.70
2023-02-08T09:17:42.127Z,-2.68
2023-02-08T09:20:12.232Z,-2.57
2023-02-08T09:22:41.401Z,-2.35
2023-02-08T09:25:11.118Z,-2.08
2023-02-08T09:27:42.170Z,-1.69
2023-02-08T09:30:12.543Z,-1.48
2023-02-08T09:32:42.428Z,-1.57
2023-02-08T09:35:14.165Z,-1.69
2023-02-08T09:37:44.388Z,-1.93
2023-02-08T09:40:23.461Z,-1.99
2023-02-08T09:43:03.117Z,-2.11
2023-02-08T09:45:59.265Z,-2.56
2023-02-08T09:48:34.708Z,-2.60
2023-02-08T09:51:08.639Z,-2.61
2023-02-08T09:53:44.245Z,-2.70
2023-02-08T09:56:15.915Z,-2.93
2023-02-08T09:58:50.961Z,-3.11
2023-02-08T10:01:24.288Z,-3.42
2023-02-08T10:03:58.928Z,-3.45
2023-02-08T10:06:28.139Z,-3.35
2023-02-08T10:08:57.152Z,-3.27
2023-02-08T10:11:50.378Z,-3.05
2023-02-08T10:14:41.501Z,-2.62
2023-02-08T10:17:25.568Z,-2.28
2023-02-08T10:20:05.375Z,-2.04
2023-02-08T10:22:46.253Z,-1.67
2023-02-08T10:25:37.680Z,-1.50
2023-02-08T10:28:26.577Z,-1.35
2023-02-08T10:31:02.676Z,-1.30
2023-02-08T10:33:38.758Z,-1.29
2023-02-08T10:36:15.407Z,-1.00
2023-02-08T10:38:47.192Z,-1.07
2023-02-08T10:41:23.985Z,-1.15
2023-02-08T10:43:59.507Z,-0.96
2023-02-08T10:46:35.760Z,-0.91
2023-02-08T10:49:11.370Z,-1.28
2023-02-08T10:51:40.677Z,-0.94
2023-02-08T10:54:12.943Z,-0.30
2023-02-08T10:56:47.938Z,-0.15
2023-02-08T10:59:21.441Z,-0.45
2023-02-08T11:01:52.261Z,-0.46
2023-02-08T11:04:22.529Z,-0.59
2023-02-08T11:06:55.417Z,-0.37
2023-02-08T11:09:29.283Z,-0.53
2023-02-08T11:12:02.627Z,-0.67
2023-02-08T11:14:46.813Z,-0.78
2023-02-08T11:17:28.871Z,-0.99
2023-02-08T11:20:00.196Z,-1.18
2023-02-08T11:22:34.613Z,-1.17
2023-02-08T11:25:06.135Z,-1.43
2023-02-08T11:27:37.625Z,-1.53
2023-02-08T11:30:23.503Z,-1.51
2023-02-08T11:33:19.338Z,-1.62
2023-02-08T11:36:01.133Z,-1.81
2023-02-08T11:38:31.768Z,-1.87
2023-02-08T11:41:03.086Z,-2.03
2023-02-08T11:43:34.592Z,-2.07
2023-02-08T11:46:06.981Z,-2.02
2023-02-08T11:48:47.957Z,-2.08
2023-02-08T11:51:28.352Z,-2.11
2023-02-08T11:53:58.402Z,-2.17
2023-02-08T11:56:30.142Z,-2.27
2023-02-08T11:59:03.662Z,-2.42
2023-02-08T12:01:44.103Z,-2.53
2023-02-08T12:04:19.704Z,-2.52
2023-02-08T12:07:19.753Z,-2.50
2023-02-08T12:10:12.960Z,-2.57
2023-02-08T12:12:55.079Z,-2.63
2023-02-08T12:15:33.029Z,-2.63
2023-02-08T12:18:17.943Z,-2.70
2023-02-08T12:20:53.315Z,-2.68
2023-02-08T12:23:39.454Z,-2.56
2023-02-08T12:26:17.705Z,-2.38
2023-02-08T12:29:17.937Z,-2.30
2023-02-08T12:32:06.795Z,-2.17
2023-02-08T12:34:53.455Z,-2.18
2023-02-08T12:37:53.469Z,-2.18
2023-02-08T12:40:50.941Z,-2.25
2023-02-08T12:43:43.275Z,-2.33
2023-02-08T12:46:34.526Z,-2.27
2023-02-08T12:49:23.974Z,-2.37
2023-02-08T12:52:01.305Z,-2.31
2023-02-08T12:54:37.350Z,-2.38
2023-02-08T12:57:07.861Z,-2.43
2023-02-08T12:59:41.686Z,-2.42
2023-02-08T13:02:19.403Z,-2.35
2023-02-08T13:04:54.123Z,-2.35
2023-02-08T13:07:28.021Z,-2.47
2023-02-08T13:10:04.037Z,-2.49
2023-02-08T13:12:37.581Z,-2.43
2023-02-08T13:15:28.551Z,-2.47
2023-02-08T13:18:01.474Z,-2.59
2023-02-08T13:20:38.267Z,-2.76
2023-02-08T13:23:16.937Z,-2.75
2023-02-08T13:25:49.523Z,-2.80
2023-02-08T13:28:23.055Z,-2.83
2023-02-08T13:31:01.023Z,-2.84
2023-02-08T13:33:55.646Z,-2.97
2023-02-08T13:36:33.303Z,-2.93
2023-02-08T13:39:05.732Z,-3.00
2023-02-08T13:41:38.921Z,-3.09
2023-02-08T13:44:10.691Z,-3.09
2023-02-08T13:46:46.548Z,-3.12
2023-02-08T13:49:45.056Z,-3.14
2023-02-08T13:52:51.588Z,-3.22
2023-02-08T13:55:57.541Z,-3.25
2023-02-08T13:59:04.700Z,-3.27
2023-02-08T14:01:36.319Z,-3.26
2023-02-08T14:04:39.306Z,-3.29
2023-02-08T14:07:19.070Z,-3.30
2023-02-08T14:10:04.203Z,-3.36
2023-02-08T14:12:40.019Z,-3.43
2023-02-08T14:15:42.519Z,-3.54
2023-02-08T14:18:26.140Z,-3.58
2023-02-08T14:21:07.242Z,-3.64
2023-02-08T14:23:40.722Z,-3.66
2023-02-08T14:26:24.275Z,-3.67
2023-02-08T14:28:57.240Z,-3.69
2023-02-08T14:31:38.663Z,-3.69
2023-02-08T14:34:19.304Z,-3.72
2023-02-08T14:36:48.947Z,-3.73
2023-02-08T14:39:26.638Z,-3.78
2023-02-08T14:42:01.489Z,-3.79
2023-02-08T14:45:04.185Z,-3.75
2023-02-08T14:48:17.548Z,-3.71
2023-02-08T14:50:56.771Z,-3.67
2023-02-08T14:53:31.095Z,-3.63
2023-02-08T14:56:06.629Z,-3.57
2023-02-08T14:58:42.615Z,-3.62
2023-02-08T15:01:18.386Z,-3.60
2023-02-08T15:03:50.617Z,-3.60
2023-02-08T15:06:53.581Z,-3.65
2023-02-08T15:09:25.825Z,-3.60
2023-02-08T15:12:01.751Z,-3.59
2023-02-08T15:14:35.140Z,-3.54
2023-02-08T15:17:04.655Z,-3.57
2023-02-08T15:19:38.712Z,-3.52
2023-02-08T15:22:29.806Z,-3.48
2023-02-08T15:25:01.762Z,-3.49
2023-02-08T15:27:33.524Z,-3.51
2023-02-08T15:30:04.150Z,-3.50
2023-02-08T15:32:35.111Z,-3.49
2023-02-08T15:35:05.763Z,-3.45
2023-02-08T15:37:36.425Z,-3.48
2023-02-08T15:40:06.159Z,-3.47
2023-02-08T15:42:36.174Z,-3.47
2023-02-08T15:45:24.521Z,-3.40
2023-02-08T15:47:55.122Z,-3.39
2023-02-08T15:50:28.393Z,-3.35
2023-02-08T15:53:03.958Z,-3.29
2023-02-08T15:55:37.240Z,-3.38
2023-02-08T15:58:10.116Z,-3.42
2023-02-08T16:00:44.879Z,-3.40
2023-02-08T16:03:23.768Z,-3.46
2023-02-08T16:05:58.457Z,-3.53
2023-02-08T16:08:29.524Z,-3.53
2023-02-08T16:11:01.927Z,-3.59
2023-02-08T16:13:33.355Z,-3.67
2023-02-08T16:16:19.795Z,-3.75
2023-02-08T16:18:58.595Z,-3.80
2023-02-08T16:21:36.118Z,-3.76
2023-02-08T16:24:22.548Z,-3.74
2023-02-08T16:26:59.766Z,-3.72
2023-02-08T16:29:31.741Z,-3.69
2023-02-08T16:32:12.523Z,-3.75
2023-02-08T16:34:42.482Z,-3.74
2023-02-08T16:37:24.805Z,-3.69
2023-02-08T16:39:56.515Z,-3.67
2023-02-08T16:42:31.160Z,-3.69
2023-02-08T16:45:19.403Z,-3.87
2023-02-08T16:47:56.782Z,-3.86
2023-02-08T16:50:28.314Z,-3.79
2023-02-08T16:53:01.655Z,-3.75
2023-02-08T16:55:34.881Z,-3.81
2023-02-08T16:58:03.999Z,-3.79
2023-02-08T17:00:35.462Z,-3.78
2023-02-08T17:03:06.118Z,-3.79
2023-02-08T17:05:38.937Z,-3.80
2023-02-08T17:08:15.959Z,-3.74
2023-02-08T17:10:46.000Z,-3.75
2023-02-08T17:13:20.806Z,-3.75
2023-02-08T17:15:50.814Z,-3.77
2023-02-08T17:18:21.676Z,-3.74
2023-02-08T17:20:57.490Z,-3.71
2023-02-08T17:23:27.181Z,-3.69
2023-02-08T17:25:56.258Z,-3.63
2023-02-08T17:28:25.429Z,-3.58
2023-02-08T17:30:54.525Z,-3.49
2023-02-08T17:33:26.247Z,-3.55
2023-02-08T17:35:55.553Z,-3.52
2023-02-08T17:38:24.605Z,-3.53
2023-02-08T17:40:53.621Z,-3.44
2023-02-08T17:43:23.353Z,-3.46
2023-02-08T17:45:52.653Z,-3.51
2023-02-08T17:48:21.757Z,-3.45
2023-02-08T17:50:53.776Z,-3.42
2023-02-08T17:53:22.739Z,-3.53
2023-02-08T17:55:52.609Z,-3.54
2023-02-08T17:58:21.620Z,-3.58
2023-02-08T18:00:50.629Z,-3.53
2023-02-08T18:03:19.588Z,-3.52
2023-02-08T18:05:48.570Z,-3.51
2023-02-08T18:08:19.276Z,-3.45
2023-02-08T18:10:48.419Z,-3.46
2023-02-08T18:13:18.284Z,-3.47
2023-02-08T18:15:48.241Z,-3.43
2023-02-08T18:18:18.468Z,-3.37
2023-02-08T18:20:47.672Z,-3.34
2023-02-08T18:23:18.769Z,-3.32
2023-02-08T18:25:48.811Z,-3.30
2023-02-08T18:28:18.041Z,-3.36
2023-02-08T18:30:47.616Z,-3.41
2023-02-08T18:33:17.021Z,-3.47
2023-02-08T18:35:49.830Z,-3.52
2023-02-08T18:38:22.089Z,-3.50
2023-02-08T18:40:51.861Z,-3.50
2023-02-08T18:43:22.982Z,-3.49
2023-02-08T18:46:05.448Z,-3.33
2023-02-08T18:48:35.376Z,-3.40
2023-02-08T18:51:05.499Z,-3.35
2023-02-08T18:53:38.753Z,-3.40
2023-02-08T18:56:13.922Z,-3.47
2023-02-08T18:58:43.085Z,-3.53
2023-02-08T19:01:14.922Z,-3.45
2023-02-08T19:03:44.987Z,-3.45
2023-02-08T19:06:16.480Z,-3.46
2023-02-08T19:08:47.525Z,-3.45
2023-02-08T19:11:18.491Z,-3.34
2023-02-08T19:13:48.112Z,-3.37
2023-02-08T19:16:18.542Z,-3.41
2023-02-08T19:18:48.251Z,-3.38
2023-02-08T19:21:19.538Z,-3.37
2023-02-08T19:23:52.007Z,-3.39
2023-02-08T19:26:23.022Z,-3.36
2023-02-08T19:28:53.081Z,-3.38
2023-02-08T19:31:28.123Z,-3.36
2023-02-08T19:33:59.728Z,-3.39
2023-02-08T19:36:31.231Z,-3.46
2023-02-08T19:39:02.155Z,-3.36
2023-02-08T19:41:34.085Z,-3.45
2023-02-08T19:44:06.400Z,-3.52
2023-02-08T19:46:38.897Z,-3.53
2023-02-08T19:49:08.573Z,-3.60
2023-02-08T19:51:37.894Z,-3.71
2023-02-08T19:54:10.465Z,-3.78
2023-02-08T19:56:40.182Z,-3.82
2023-02-08T19:59:19.737Z,-3.87
2023-02-08T20:01:49.410Z,-3.90
2023-02-08T20:04:18.606Z,-3.92
2023-02-08T20:06:51.052Z,-3.94
2023-02-08T20:09:22.139Z,-3.93
2023-02-08T20:12:00.087Z,-3.92
2023-02-08T20:14:31.312Z,-3.93
2023-02-08T20:17:00.543Z,-3.94
2023-02-08T20:19:30.208Z,-3.89
2023-02-08T20:21:59.294Z,-3.92
2023-02-08T20:24:29.742Z,-3.95
2023-02-08T20:26:58.711Z,-3.95
2023-02-08T20:29:28.645Z,-3.94
2023-02-08T20:31:58.412Z,-3.94
2023-02-08T20:34:27.504Z,-3.97
2023-02-08T20:37:11.891Z,-3.96
2023-02-08T20:39:42.537Z,-3.96
2023-02-08T20:42:11.547Z,-3.97
2023-02-08T20:44:40.710Z,-3.95
2023-02-08T20:47:10.869Z,-3.91
2023-02-08T20:49:40.550Z,-3.91
2023-02-08T20:52:09.616Z,-3.89
2023-02-08T20:54:39.310Z,-3.87
2023-02-08T20:57:11.145Z,-3.85
2023-02-08T20:59:40.228Z,-3.88
2023-02-08T21:02:11.658Z,-3.89
2023-02-08T21:04:40.690Z,-3.83
2023-02-08T21:07:09.808Z,-3.80
2023-02-08T21:09:39.064Z,-3.79
2023-02-08T21:12:09.785Z,-3.80
2023-02-08T21:14:40.521Z,-3.77
2023-02-08T21:17:11.000Z,-3.73
2023-02-08T21:19:40.211Z,-3.70
2023-02-08T21:22:09.231Z,-3.73
2023-02-08T21:24:38.355Z,-3.74
2023-02-08T21:27:07.763Z,-3.72
2023-02-08T21:29:38.347Z,-3.73
2023-02-08T21:32:07.456Z,-3.75
2023-02-08T21:34:36.693Z,-3.72
2023-02-08T21:37:05.782Z,-3.71
2023-02-08T21:39:34.938Z,-3.73
2023-02-08T21:42:03.981Z,-3.71
2023-02-08T21:44:35.288Z,-3.68
2023-02-08T21:47:05.850Z,-3.69
2023-02-08T21:49:52.030Z,-3.70
2023-02-08T21:52:38.481Z,-3.70
2023-02-08T21:55:07.959Z,-3.62
2023-02-08T21:57:41.032Z,-3.67
2023-02-08T22:00:11.494Z,-3.69
2023-02-08T22:02:46.154Z,-3.67
2023-02-08T22:05:15.324Z,-3.66
2023-02-08T22:07:47.444Z,-3.64
2023-02-08T22:10:19.825Z,-3.62
2023-02-08T22:12:49.038Z,-3.61
2023-02-08T22:15:20.740Z,-3.61
2023-02-08T22:17:54.735Z,-3.59
2023-02-08T22:20:24.462Z,-3.55
2023-02-08T22:22:55.240Z,-3.55
2023-02-08T22:25:24.804Z,-3.53
2023-02-08T22:27:53.985Z,-3.52
2023-02-08T22:30:25.524Z,-3.50
2023-02-08T22:32:56.194Z,-3.51
2023-02-08T22:35:25.468Z,-3.48
2023-02-08T22:37:55.088Z,-3.50
2023-02-08T22:40:24.147Z,-3.48
2023-02-08T22:42:53.240Z,-3.45
2023-02-08T22:45:22.273Z,-3.45
2023-02-08T22:47:51.308Z,-3.43
2023-02-08T22:50:21.922Z,-3.42
2023-02-08T22:52:50.894Z,-3.43
2023-02-08T22:55:19.916Z,-3.44
2023-02-08T22:57:49.117Z,-3.40
2023-02-08T23:00:18.662Z,-3.40
2023-02-08T23:02:47.746Z,-3.47
2023-02-08T23:05:16.704Z,-3.46
2023-02-08T23:07:47.095Z,-3.44
2023-02-08T23:10:16.162Z,-3.48
2023-02-08T23:12:45.303Z,-3.49
2023-02-08T23:15:14.304Z,-3.52
2023-02-08T23:17:43.432Z,-3.60
2023-02-08T23:20:13.157Z,-3.63
2023-02-08T23:22:42.261Z,-3.64
2023-02-08T23:25:12.791Z,-3.63
2023-02-08T23:27:41.855Z,-3.62
2023-02-08T23:30:12.069Z,-3.64
2023-02-08T23:32:42.340Z,-3.59
2023-02-08T23:35:12.346Z,-3.65
2023-02-08T23:37:41.280Z,-3.67
2023-02-08T23:40:13.381Z,-3.67
2023-02-08T23:42:42.420Z,-3.69
2023-02-08T23:45:11.794Z,-3.70
2023-02-08T23:47:41.710Z,-3.70
2023-02-08T23:50:11.736Z,-3.73
2023-02-08T23:52:40.715Z,-3.77
2023-02-08T23:55:10.070Z,-3.78
2023-02-08T23:57:40.813Z,-3.79
